sensor_id;sensor_type;location;lat;lon;timestamp;P1;durP1;ratioP1;P2;durP2;ratioP2
37945;SDS011;23769;52.478;13.448;2022-10-03T00:02:11;23.70;;;4.68;;
37945;SDS011;23769;52.478;13.448;2022-10-03T00:04:45;15.85;;;3.10;;
37945;SDS011;23769;52.478;13.448;2022-10-03T00:07:21;14.45;;;2.78;;
37945;SDS011;23769;52.478;13.448;2022-10-03T00:09:58;15.70;;;3.20;;
37945;SDS011;23769;52.478;13.448;2022-10-03T00:15:16;17.35;;;2.65;;
37945;SDS011;23769;52.478;13.448;2022-10-03T00:17:48;17.75;;;3.15;;
37945;SDS011;23769;52.478;13.448;2022-10-03T00:20:29;17.58;;;3.40;;
37945;SDS011;23769;52.478;13.448;2022-10-03T00:22:58;12.57;;;2.63;;
37945;SDS011;23769;52.478;13.448;2022-10-03T00:25:31;13.00;;;2.92;;
37945;SDS011;23769;52.478;13.448;2022-10-03T00:28:11;16.30;;;3.37;;
37945;SDS011;23769;52.478;13.448;2022-10-03T00:30:46;19.85;;;3.20;;
37945;SDS011;23769;52.478;13.448;2022-10-03T00:33:18;15.93;;;3.15;;
37945;SDS011;23769;52.478;13.448;2022-10-03T00:35:54;15.95;;;2.85;;
37945;SDS011;23769;52.478;13.448;2022-10-03T00:41:15;17.50;;;3.50;;
37945;SDS011;23769;52.478;13.448;2022-10-03T00:44:02;22.70;;;3.95;;
37945;SDS011;23769;52.478;13.448;2022-10-03T00:46:50;17.17;;;2.90;;
37945;SDS011;23769;52.478;13.448;2022-10-03T00:52:13;16.67;;;3.65;;
37945;SDS011;23769;52.478;13.448;2022-10-03T00:54:52;13.05;;;3.08;;
37945;SDS011;23769;52.478;13.448;2022-10-03T00:57:31;17.67;;;3.40;;
37945;SDS011;23769;52.478;13.448;2022-10-03T01:00:04;11.60;;;2.72;;
37945;SDS011;23769;52.478;13.448;2022-10-03T01:02:33;17.42;;;2.65;;
37945;SDS011;23769;52.478;13.448;2022-10-03T01:05:09;18.35;;;3.25;;
37945;SDS011;23769;52.478;13.448;2022-10-03T01:07:54;13.98;;;3.05;;
37945;SDS011;23769;52.478;13.448;2022-10-03T01:10:26;17.00;;;2.78;;
37945;SDS011;23769;52.478;13.448;2022-10-03T01:13:10;10.55;;;2.70;;
37945;SDS011;23769;52.478;13.448;2022-10-03T01:15:44;14.60;;;2.88;;
37945;SDS011;23769;52.478;13.448;2022-10-03T01:18:15;13.88;;;2.90;;
37945;SDS011;23769;52.478;13.448;2022-10-03T01:20:48;14.07;;;2.73;;
37945;SDS011;23769;52.478;13.448;2022-10-03T01:26:04;11.60;;;2.47;;
37945;SDS011;23769;52.478;13.448;2022-10-03T01:28:42;15.57;;;2.72;;
37945;SDS011;23769;52.478;13.448;2022-10-03T01:31:32;18.05;;;3.38;;
37945;SDS011;23769;52.478;13.448;2022-10-03T01:36:30;15.07;;;2.63;;
37945;SDS011;23769;52.478;13.448;2022-10-03T01:38:59;18.27;;;3.10;;
37945;SDS011;23769;52.478;13.448;2022-10-03T01:41:30;16.67;;;2.50;;
37945;SDS011;23769;52.478;13.448;2022-10-03T01:44:00;12.57;;;2.53;;
37945;SDS011;23769;52.478;13.448;2022-10-03T01:46:33;16.65;;;3.22;;
37945;SDS011;23769;52.478;13.448;2022-10-03T01:49:07;16.63;;;2.95;;
37945;SDS011;23769;52.478;13.448;2022-10-03T01:51:40;11.20;;;2.78;;
37945;SDS011;23769;52.478;13.448;2022-10-03T01:54:11;13.93;;;2.95;;
37945;SDS011;23769;52.478;13.448;2022-10-03T01:56:44;17.45;;;2.53;;
37945;SDS011;23769;52.478;13.448;2022-10-03T01:59:15;11.57;;;2.88;;
37945;SDS011;23769;52.478;13.448;2022-10-03T02:01:46;10.75;;;2.30;;
37945;SDS011;23769;52.478;13.448;2022-10-03T02:04:16;14.40;;;2.70;;
37945;SDS011;23769;52.478;13.448;2022-10-03T02:06:48;11.02;;;2.88;;
37945;SDS011;23769;52.478;13.448;2022-10-03T02:09:19;10.30;;;2.42;;
37945;SDS011;23769;52.478;13.448;2022-10-03T02:11:56;13.93;;;2.65;;
37945;SDS011;23769;52.478;13.448;2022-10-03T02:14:26;12.45;;;2.65;;
37945;SDS011;23769;52.478;13.448;2022-10-03T02:16:58;16.85;;;2.78;;
37945;SDS011;23769;52.478;13.448;2022-10-03T02:19:28;16.58;;;3.05;;
37945;SDS011;23769;52.478;13.448;2022-10-03T02:21:57;10.10;;;2.35;;
37945;SDS011;23769;52.478;13.448;2022-10-03T02:24:31;11.95;;;2.20;;
37945;SDS011;23769;52.478;13.448;2022-10-03T02:38:10;13.77;;;2.25;;
37945;SDS011;23769;52.478;13.448;2022-10-03T02:40:57;11.18;;;2.30;;
37945;SDS011;23769;52.478;13.448;2022-10-03T03:00:22;12.93;;;2.10;;
37945;SDS011;23769;52.478;13.448;2022-10-03T03:03:00;12.50;;;2.38;;
37945;SDS011;23769;52.478;13.448;2022-10-03T03:05:52;10.90;;;2.47;;
37945;SDS011;23769;52.478;13.448;2022-10-03T03:08:40;12.93;;;2.53;;
37945;SDS011;23769;52.478;13.448;2022-10-03T03:14:07;15.20;;;2.83;;
37945;SDS011;23769;52.478;13.448;2022-10-03T03:16:43;10.48;;;2.33;;
37945;SDS011;23769;52.478;13.448;2022-10-03T03:21:57;15.05;;;3.33;;
37945;SDS011;23769;52.478;13.448;2022-10-03T03:27:16;12.80;;;2.35;;
37945;SDS011;23769;52.478;13.448;2022-10-03T03:29:47;15.32;;;2.33;;
37945;SDS011;23769;52.478;13.448;2022-10-03T03:32:20;11.93;;;2.50;;
37945;SDS011;23769;52.478;13.448;2022-10-03T03:34:52;15.15;;;2.70;;
37945;SDS011;23769;52.478;13.448;2022-10-03T03:37:22;12.73;;;2.50;;
37945;SDS011;23769;52.478;13.448;2022-10-03T03:40:11;13.75;;;2.88;;
37945;SDS011;23769;52.478;13.448;2022-10-03T03:42:47;12.40;;;2.00;;
37945;SDS011;23769;52.478;13.448;2022-10-03T03:45:24;11.85;;;2.10;;
37945;SDS011;23769;52.478;13.448;2022-10-03T03:48:02;13.93;;;2.85;;
37945;SDS011;23769;52.478;13.448;2022-10-03T03:50:40;12.80;;;2.40;;
37945;SDS011;23769;52.478;13.448;2022-10-03T03:53:25;12.80;;;2.92;;
37945;SDS011;23769;52.478;13.448;2022-10-03T03:56:02;13.95;;;2.17;;
37945;SDS011;23769;52.478;13.448;2022-10-03T03:58:34;14.95;;;2.53;;
37945;SDS011;23769;52.478;13.448;2022-10-03T04:01:06;10.52;;;2.50;;
37945;SDS011;23769;52.478;13.448;2022-10-03T04:03:41;15.80;;;2.30;;
37945;SDS011;23769;52.478;13.448;2022-10-03T04:06:20;12.43;;;2.63;;
37945;SDS011;23769;52.478;13.448;2022-10-03T04:11:32;13.45;;;2.75;;
37945;SDS011;23769;52.478;13.448;2022-10-03T04:14:13;8.82;;;2.20;;
37945;SDS011;23769;52.478;13.448;2022-10-03T04:16:48;12.85;;;3.13;;
37945;SDS011;23769;52.478;13.448;2022-10-03T04:19:43;13.52;;;2.55;;
37945;SDS011;23769;52.478;13.448;2022-10-03T04:30:32;13.85;;;3.08;;
37945;SDS011;23769;52.478;13.448;2022-10-03T04:33:05;11.02;;;2.47;;
37945;SDS011;23769;52.478;13.448;2022-10-03T04:38:22;15.55;;;2.97;;
37945;SDS011;23769;52.478;13.448;2022-10-03T04:40:52;17.25;;;2.72;;
37945;SDS011;23769;52.478;13.448;2022-10-03T04:43:30;13.73;;;2.45;;
37945;SDS011;23769;52.478;13.448;2022-10-03T04:46:09;9.30;;;2.00;;
37945;SDS011;23769;52.478;13.448;2022-10-03T04:48:45;16.13;;;2.75;;
37945;SDS011;23769;52.478;13.448;2022-10-03T04:53:46;11.30;;;2.53;;
37945;SDS011;23769;52.478;13.448;2022-10-03T04:56:19;13.13;;;2.67;;
37945;SDS011;23769;52.478;13.448;2022-10-03T04:58:49;9.23;;;2.53;;
37945;SDS011;23769;52.478;13.448;2022-10-03T05:01:22;9.30;;;2.00;;
37945;SDS011;23769;52.478;13.448;2022-10-03T05:03:52;11.65;;;2.40;;
37945;SDS011;23769;52.478;13.448;2022-10-03T05:06:26;22.88;;;3.22;;
37945;SDS011;23769;52.478;13.448;2022-10-03T05:08:58;13.05;;;2.10;;
37945;SDS011;23769;52.478;13.448;2022-10-03T05:11:46;12.98;;;2.45;;
37945;SDS011;23769;52.478;13.448;2022-10-03T05:14:16;12.68;;;2.33;;
37945;SDS011;23769;52.478;13.448;2022-10-03T05:16:46;18.58;;;3.00;;
37945;SDS011;23769;52.478;13.448;2022-10-03T05:21:58;10.25;;;2.30;;
37945;SDS011;23769;52.478;13.448;2022-10-03T05:24:35;13.68;;;2.17;;
37945;SDS011;23769;52.478;13.448;2022-10-03T05:27:10;15.48;;;2.50;;
37945;SDS011;23769;52.478;13.448;2022-10-03T05:29:42;15.05;;;3.40;;
37945;SDS011;23769;52.478;13.448;2022-10-03T05:32:12;11.98;;;2.75;;
37945;SDS011;23769;52.478;13.448;2022-10-03T05:34:49;9.65;;;2.20;;
37945;SDS011;23769;52.478;13.448;2022-10-03T05:37:22;16.63;;;2.97;;
37945;SDS011;23769;52.478;13.448;2022-10-03T05:39:56;10.15;;;3.17;;
37945;SDS011;23769;52.478;13.448;2022-10-03T05:42:34;19.30;;;2.97;;
37945;SDS011;23769;52.478;13.448;2022-10-03T05:45:03;11.02;;;2.40;;
37945;SDS011;23769;52.478;13.448;2022-10-03T05:47:32;10.18;;;2.17;;
37945;SDS011;23769;52.478;13.448;2022-10-03T05:50:27;11.38;;;2.70;;
37945;SDS011;23769;52.478;13.448;2022-10-03T05:53:01;11.95;;;2.22;;
37945;SDS011;23769;52.478;13.448;2022-10-03T05:55:37;13.63;;;2.55;;
37945;SDS011;23769;52.478;13.448;2022-10-03T05:58:13;12.82;;;2.83;;
37945;SDS011;23769;52.478;13.448;2022-10-03T06:00:51;12.57;;;2.53;;
37945;SDS011;23769;52.478;13.448;2022-10-03T06:03:38;13.13;;;3.03;;
37945;SDS011;23769;52.478;13.448;2022-10-03T06:06:14;12.82;;;2.20;;
37945;SDS011;23769;52.478;13.448;2022-10-03T06:08:53;10.98;;;2.10;;
37945;SDS011;23769;52.478;13.448;2022-10-03T06:11:36;12.25;;;2.55;;
37945;SDS011;23769;52.478;13.448;2022-10-03T06:14:14;9.60;;;2.17;;
37945;SDS011;23769;52.478;13.448;2022-10-03T06:16:50;12.63;;;3.13;;
37945;SDS011;23769;52.478;13.448;2022-10-03T06:19:26;10.75;;;2.67;;
37945;SDS011;23769;52.478;13.448;2022-10-03T06:25:10;9.02;;;1.92;;
37945;SDS011;23769;52.478;13.448;2022-10-03T06:30:39;15.88;;;2.42;;
37945;SDS011;23769;52.478;13.448;2022-10-03T06:33:29;13.90;;;2.83;;
37945;SDS011;23769;52.478;13.448;2022-10-03T06:36:18;14.27;;;2.60;;
37945;SDS011;23769;52.478;13.448;2022-10-03T06:41:40;18.27;;;2.90;;
37945;SDS011;23769;52.478;13.448;2022-10-03T06:44:17;14.18;;;2.35;;
37945;SDS011;23769;52.478;13.448;2022-10-03T06:49:36;10.75;;;2.65;;
37945;SDS011;23769;52.478;13.448;2022-10-03T06:52:12;13.70;;;2.65;;
37945;SDS011;23769;52.478;13.448;2022-10-03T06:54:57;12.75;;;2.50;;
37945;SDS011;23769;52.478;13.448;2022-10-03T06:57:33;12.65;;;2.25;;
37945;SDS011;23769;52.478;13.448;2022-10-03T07:02:49;15.70;;;3.03;;
37945;SDS011;23769;52.478;13.448;2022-10-03T07:05:37;11.55;;;2.65;;
37945;SDS011;23769;52.478;13.448;2022-10-03T07:11:02;14.48;;;2.97;;
37945;SDS011;23769;52.478;13.448;2022-10-03T07:19:21;16.30;;;2.90;;
37945;SDS011;23769;52.478;13.448;2022-10-03T07:22:06;10.98;;;2.30;;
37945;SDS011;23769;52.478;13.448;2022-10-03T07:27:27;11.85;;;2.35;;
37945;SDS011;23769;52.478;13.448;2022-10-03T07:30:05;13.18;;;2.42;;
37945;SDS011;23769;52.478;13.448;2022-10-03T07:32:41;12.35;;;2.33;;
37945;SDS011;23769;52.478;13.448;2022-10-03T07:38:29;9.98;;;2.20;;
37945;SDS011;23769;52.478;13.448;2022-10-03T07:41:23;17.33;;;2.80;;
37945;SDS011;23769;52.478;13.448;2022-10-03T07:44:07;13.05;;;2.58;;
37945;SDS011;23769;52.478;13.448;2022-10-03T07:49:43;9.73;;;2.25;;
37945;SDS011;23769;52.478;13.448;2022-10-03T07:55:17;11.13;;;2.22;;
37945;SDS011;23769;52.478;13.448;2022-10-03T08:00:37;14.85;;;2.63;;
37945;SDS011;23769;52.478;13.448;2022-10-03T08:11:42;13.25;;;4.32;;
37945;SDS011;23769;52.478;13.448;2022-10-03T08:14:18;13.40;;;5.05;;
37945;SDS011;23769;52.478;13.448;2022-10-03T08:17:09;11.80;;;2.92;;
37945;SDS011;23769;52.478;13.448;2022-10-03T08:22:36;11.20;;;2.92;;
37945;SDS011;23769;52.478;13.448;2022-10-03T08:27:59;11.15;;;2.28;;
37945;SDS011;23769;52.478;13.448;2022-10-03T08:30:34;12.40;;;2.67;;
37945;SDS011;23769;52.478;13.448;2022-10-03T08:33:11;7.20;;;2.58;;
37945;SDS011;23769;52.478;13.448;2022-10-03T08:35:57;12.13;;;3.08;;
37945;SDS011;23769;52.478;13.448;2022-10-03T08:41:38;11.95;;;2.80;;
37945;SDS011;23769;52.478;13.448;2022-10-03T08:44:32;14.70;;;2.95;;
37945;SDS011;23769;52.478;13.448;2022-10-03T08:47:24;12.98;;;2.67;;
37945;SDS011;23769;52.478;13.448;2022-10-03T08:50:02;10.68;;;2.92;;
37945;SDS011;23769;52.478;13.448;2022-10-03T08:52:33;12.05;;;2.40;;
37945;SDS011;23769;52.478;13.448;2022-10-03T08:55:18;13.45;;;2.53;;
37945;SDS011;23769;52.478;13.448;2022-10-03T08:57:59;15.02;;;2.63;;
37945;SDS011;23769;52.478;13.448;2022-10-03T09:00:33;10.23;;;2.97;;
37945;SDS011;23769;52.478;13.448;2022-10-03T09:11:43;11.45;;;2.58;;
37945;SDS011;23769;52.478;13.448;2022-10-03T09:17:00;11.77;;;2.85;;
37945;SDS011;23769;52.478;13.448;2022-10-03T09:19:34;14.60;;;3.90;;
37945;SDS011;23769;52.478;13.448;2022-10-03T09:22:19;8.35;;;2.10;;
37945;SDS011;23769;52.478;13.448;2022-10-03T09:30:45;11.82;;;3.58;;
37945;SDS011;23769;52.478;13.448;2022-10-03T09:36:06;13.38;;;2.78;;
37945;SDS011;23769;52.478;13.448;2022-10-03T09:38:41;13.23;;;3.05;;
37945;SDS011;23769;52.478;13.448;2022-10-03T09:41:21;15.45;;;2.60;;
37945;SDS011;23769;52.478;13.448;2022-10-03T09:43:57;11.82;;;2.85;;
37945;SDS011;23769;52.478;13.448;2022-10-03T09:51:52;11.77;;;2.27;;
37945;SDS011;23769;52.478;13.448;2022-10-03T09:54:38;11.85;;;2.80;;
37945;SDS011;23769;52.478;13.448;2022-10-03T09:57:18;11.48;;;2.90;;
37945;SDS011;23769;52.478;13.448;2022-10-03T09:59:51;9.30;;;2.75;;
37945;SDS011;23769;52.478;13.448;2022-10-03T10:02:35;12.75;;;3.47;;
37945;SDS011;23769;52.478;13.448;2022-10-03T10:05:14;11.82;;;4.15;;
37945;SDS011;23769;52.478;13.448;2022-10-03T10:08:03;12.13;;;2.88;;
37945;SDS011;23769;52.478;13.448;2022-10-03T10:10:50;6.32;;;2.03;;
37945;SDS011;23769;52.478;13.448;2022-10-03T10:16:25;12.20;;;3.13;;
37945;SDS011;23769;52.478;13.448;2022-10-03T10:21:51;9.65;;;2.20;;
37945;SDS011;23769;52.478;13.448;2022-10-03T10:30:20;12.52;;;4.13;;
37945;SDS011;23769;52.478;13.448;2022-10-03T10:35:50;13.20;;;2.78;;
37945;SDS011;23769;52.478;13.448;2022-10-03T10:38:37;17.15;;;2.63;;
37945;SDS011;23769;52.478;13.448;2022-10-03T10:44:22;11.88;;;2.88;;
37945;SDS011;23769;52.478;13.448;2022-10-03T10:47:11;10.15;;;2.20;;
37945;SDS011;23769;52.478;13.448;2022-10-03T10:58:04;10.07;;;2.40;;
37945;SDS011;23769;52.478;13.448;2022-10-03T11:00:47;11.52;;;2.45;;
37945;SDS011;23769;52.478;13.448;2022-10-03T11:14:53;11.30;;;3.42;;
37945;SDS011;23769;52.478;13.448;2022-10-03T11:17:37;9.90;;;2.67;;
37945;SDS011;23769;52.478;13.448;2022-10-03T11:23:19;6.97;;;1.90;;
37945;SDS011;23769;52.478;13.448;2022-10-03T11:28:53;11.38;;;2.80;;
37945;SDS011;23769;52.478;13.448;2022-10-03T11:34:39;14.10;;;2.53;;
37945;SDS011;23769;52.478;13.448;2022-10-03T11:37:23;5.15;;;1.42;;
37945;SDS011;23769;52.478;13.448;2022-10-03T11:39:55;8.27;;;2.38;;
37945;SDS011;23769;52.478;13.448;2022-10-03T11:42:28;12.45;;;2.42;;
37945;SDS011;23769;52.478;13.448;2022-10-03T11:45:02;8.50;;;2.35;;
37945;SDS011;23769;52.478;13.448;2022-10-03T11:47:41;7.90;;;2.75;;
37945;SDS011;23769;52.478;13.448;2022-10-03T11:50:22;4.95;;;2.00;;
37945;SDS011;23769;52.478;13.448;2022-10-03T11:52:57;8.37;;;2.20;;
37945;SDS011;23769;52.478;13.448;2022-10-03T11:55:29;6.15;;;2.38;;
37945;SDS011;23769;52.478;13.448;2022-10-03T11:58:02;7.60;;;2.40;;
37945;SDS011;23769;52.478;13.448;2022-10-03T12:00:33;5.85;;;1.90;;
37945;SDS011;23769;52.478;13.448;2022-10-03T12:03:09;12.18;;;2.72;;
37945;SDS011;23769;52.478;13.448;2022-10-03T12:05:43;8.35;;;1.77;;
37945;SDS011;23769;52.478;13.448;2022-10-03T12:08:17;6.55;;;2.05;;
37945;SDS011;23769;52.478;13.448;2022-10-03T12:11:04;9.15;;;2.45;;
37945;SDS011;23769;52.478;13.448;2022-10-03T12:13:34;11.55;;;1.98;;
37945;SDS011;23769;52.478;13.448;2022-10-03T12:16:06;9.15;;;1.90;;
37945;SDS011;23769;52.478;13.448;2022-10-03T12:18:49;9.25;;;2.28;;
37945;SDS011;23769;52.478;13.448;2022-10-03T12:21:21;8.80;;;2.83;;
37945;SDS011;23769;52.478;13.448;2022-10-03T12:23:55;13.13;;;2.80;;
37945;SDS011;23769;52.478;13.448;2022-10-03T12:26:26;8.27;;;3.60;;
37945;SDS011;23769;52.478;13.448;2022-10-03T12:28:54;13.63;;;4.00;;
37945;SDS011;23769;52.478;13.448;2022-10-03T12:31:23;10.43;;;2.60;;
37945;SDS011;23769;52.478;13.448;2022-10-03T12:33:53;9.00;;;2.58;;
37945;SDS011;23769;52.478;13.448;2022-10-03T12:36:24;10.95;;;2.20;;
37945;SDS011;23769;52.478;13.448;2022-10-03T12:38:55;11.63;;;2.58;;
37945;SDS011;23769;52.478;13.448;2022-10-03T12:41:31;9.57;;;2.20;;
37945;SDS011;23769;52.478;13.448;2022-10-03T12:44:09;6.20;;;1.90;;
37945;SDS011;23769;52.478;13.448;2022-10-03T12:46:41;8.30;;;2.03;;
37945;SDS011;23769;52.478;13.448;2022-10-03T12:49:13;10.80;;;2.45;;
37945;SDS011;23769;52.478;13.448;2022-10-03T12:51:53;7.80;;;2.42;;
37945;SDS011;23769;52.478;13.448;2022-10-03T12:54:29;6.25;;;1.90;;
37945;SDS011;23769;52.478;13.448;2022-10-03T12:57:06;13.88;;;2.25;;
37945;SDS011;23769;52.478;13.448;2022-10-03T12:59:37;11.15;;;2.40;;
37945;SDS011;23769;52.478;13.448;2022-10-03T13:02:19;7.15;;;2.72;;
37945;SDS011;23769;52.478;13.448;2022-10-03T13:04:51;8.38;;;2.78;;
37945;SDS011;23769;52.478;13.448;2022-10-03T13:07:24;15.30;;;2.92;;
37945;SDS011;23769;52.478;13.448;2022-10-03T13:09:56;8.15;;;2.10;;
37945;SDS011;23769;52.478;13.448;2022-10-03T13:12:28;7.70;;;2.20;;
37945;SDS011;23769;52.478;13.448;2022-10-03T13:17:46;9.90;;;2.95;;
37945;SDS011;23769;52.478;13.448;2022-10-03T13:20:19;9.60;;;2.15;;
37945;SDS011;23769;52.478;13.448;2022-10-03T13:22:51;7.87;;;2.20;;
37945;SDS011;23769;52.478;13.448;2022-10-03T13:25:22;6.25;;;2.42;;
37945;SDS011;23769;52.478;13.448;2022-10-03T13:27:57;8.98;;;2.03;;
37945;SDS011;23769;52.478;13.448;2022-10-03T13:30:27;9.20;;;2.17;;
37945;SDS011;23769;52.478;13.448;2022-10-03T13:32:56;10.23;;;3.03;;
37945;SDS011;23769;52.478;13.448;2022-10-03T13:35:27;6.20;;;2.35;;
37945;SDS011;23769;52.478;13.448;2022-10-03T13:38:25;8.75;;;2.97;;
37945;SDS011;23769;52.478;13.448;2022-10-03T13:40:58;6.53;;;1.67;;
37945;SDS011;23769;52.478;13.448;2022-10-03T13:43:30;9.15;;;2.17;;
37945;SDS011;23769;52.478;13.448;2022-10-03T13:46:00;7.45;;;1.90;;
37945;SDS011;23769;52.478;13.448;2022-10-03T13:48:28;5.75;;;1.63;;
37945;SDS011;23769;52.478;13.448;2022-10-03T13:50:58;5.00;;;1.52;;
37945;SDS011;23769;52.478;13.448;2022-10-03T13:56:16;6.43;;;1.80;;
37945;SDS011;23769;52.478;13.448;2022-10-03T13:58:46;8.45;;;2.10;;
37945;SDS011;23769;52.478;13.448;2022-10-03T14:01:20;8.55;;;2.15;;
37945;SDS011;23769;52.478;13.448;2022-10-03T14:04:03;8.73;;;1.85;;
37945;SDS011;23769;52.478;13.448;2022-10-03T14:06:35;5.13;;;1.85;;
37945;SDS011;23769;52.478;13.448;2022-10-03T14:09:14;9.05;;;2.17;;
37945;SDS011;23769;52.478;13.448;2022-10-03T14:11:48;7.90;;;2.28;;
37945;SDS011;23769;52.478;13.448;2022-10-03T14:17:06;10.57;;;3.10;;
37945;SDS011;23769;52.478;13.448;2022-10-03T14:19:39;9.55;;;2.17;;
37945;SDS011;23769;52.478;13.448;2022-10-03T14:22:14;9.68;;;2.17;;
37945;SDS011;23769;52.478;13.448;2022-10-03T14:24:48;6.75;;;2.05;;
37945;SDS011;23769;52.478;13.448;2022-10-03T14:29:50;8.68;;;2.58;;
37945;SDS011;23769;52.478;13.448;2022-10-03T14:32:22;8.32;;;3.10;;
37945;SDS011;23769;52.478;13.448;2022-10-03T14:34:53;11.52;;;2.80;;
37945;SDS011;23769;52.478;13.448;2022-10-03T14:37:24;11.07;;;2.22;;
37945;SDS011;23769;52.478;13.448;2022-10-03T14:39:55;11.50;;;3.05;;
37945;SDS011;23769;52.478;13.448;2022-10-03T14:42:30;13.07;;;3.65;;
37945;SDS011;23769;52.478;13.448;2022-10-03T14:47:34;7.43;;;2.78;;
37945;SDS011;23769;52.478;13.448;2022-10-03T14:50:02;8.88;;;2.60;;
37945;SDS011;23769;52.478;13.448;2022-10-03T14:52:31;11.77;;;3.28;;
37945;SDS011;23769;52.478;13.448;2022-10-03T14:55:02;10.95;;;3.63;;
37945;SDS011;23769;52.478;13.448;2022-10-03T14:57:33;9.13;;;2.83;;
37945;SDS011;23769;52.478;13.448;2022-10-03T15:00:02;10.93;;;3.63;;
37945;SDS011;23769;52.478;13.448;2022-10-03T15:02:32;13.60;;;5.43;;
37945;SDS011;23769;52.478;13.448;2022-10-03T15:05:05;10.10;;;4.45;;
37945;SDS011;23769;52.478;13.448;2022-10-03T15:07:34;11.43;;;5.65;;
37945;SDS011;23769;52.478;13.448;2022-10-03T15:10:03;7.82;;;3.00;;
37945;SDS011;23769;52.478;13.448;2022-10-03T15:12:33;7.47;;;2.53;;
37945;SDS011;23769;52.478;13.448;2022-10-03T15:15:04;7.05;;;2.05;;
37945;SDS011;23769;52.478;13.448;2022-10-03T15:17:32;8.20;;;3.42;;
37945;SDS011;23769;52.478;13.448;2022-10-03T15:20:00;11.13;;;3.17;;
37945;SDS011;23769;52.478;13.448;2022-10-03T15:22:31;10.93;;;2.90;;
37945;SDS011;23769;52.478;13.448;2022-10-03T15:25:04;7.45;;;2.58;;
37945;SDS011;23769;52.478;13.448;2022-10-03T15:30:00;9.35;;;3.40;;
37945;SDS011;23769;52.478;13.448;2022-10-03T15:32:31;11.90;;;3.90;;
37945;SDS011;23769;52.478;13.448;2022-10-03T15:35:00;12.50;;;3.70;;
37945;SDS011;23769;52.478;13.448;2022-10-03T15:37:28;11.55;;;3.70;;
37945;SDS011;23769;52.478;13.448;2022-10-03T15:40:01;15.38;;;4.07;;
37945;SDS011;23769;52.478;13.448;2022-10-03T15:42:30;7.82;;;2.75;;
37945;SDS011;23769;52.478;13.448;2022-10-03T15:44:59;10.25;;;3.25;;
37945;SDS011;23769;52.478;13.448;2022-10-03T15:47:28;12.00;;;2.80;;
37945;SDS011;23769;52.478;13.448;2022-10-03T15:49:57;7.03;;;2.55;;
37945;SDS011;23769;52.478;13.448;2022-10-03T15:52:26;10.60;;;3.03;;
37945;SDS011;23769;52.478;13.448;2022-10-03T15:54:58;13.85;;;6.32;;
37945;SDS011;23769;52.478;13.448;2022-10-03T15:57:29;13.25;;;4.82;;
37945;SDS011;23769;52.478;13.448;2022-10-03T15:59:57;9.77;;;2.55;;
37945;SDS011;23769;52.478;13.448;2022-10-03T16:02:28;10.25;;;3.05;;
37945;SDS011;23769;52.478;13.448;2022-10-03T16:04:57;9.18;;;3.83;;
37945;SDS011;23769;52.478;13.448;2022-10-03T16:07:27;15.23;;;6.22;;
37945;SDS011;23769;52.478;13.448;2022-10-03T16:09:59;21.10;;;11.15;;
37945;SDS011;23769;52.478;13.448;2022-10-03T16:12:36;18.10;;;7.15;;
37945;SDS011;23769;52.478;13.448;2022-10-03T16:15:13;10.73;;;2.90;;
37945;SDS011;23769;52.478;13.448;2022-10-03T16:20:09;12.95;;;3.13;;
37945;SDS011;23769;52.478;13.448;2022-10-03T16:22:41;11.85;;;3.10;;
37945;SDS011;23769;52.478;13.448;2022-10-03T16:25:12;9.43;;;3.78;;
37945;SDS011;23769;52.478;13.448;2022-10-03T16:27:45;10.70;;;3.35;;
37945;SDS011;23769;52.478;13.448;2022-10-03T16:30:18;11.50;;;4.93;;
37945;SDS011;23769;52.478;13.448;2022-10-03T16:32:48;13.82;;;5.18;;
37945;SDS011;23769;52.478;13.448;2022-10-03T16:35:21;12.77;;;3.05;;
37945;SDS011;23769;52.478;13.448;2022-10-03T16:37:52;14.93;;;5.63;;
37945;SDS011;23769;52.478;13.448;2022-10-03T16:40:19;13.85;;;7.70;;
37945;SDS011;23769;52.478;13.448;2022-10-03T16:42:54;16.48;;;5.10;;
37945;SDS011;23769;52.478;13.448;2022-10-03T16:45:23;17.33;;;7.70;;
37945;SDS011;23769;52.478;13.448;2022-10-03T16:47:51;12.95;;;5.07;;
37945;SDS011;23769;52.478;13.448;2022-10-03T16:50:33;9.32;;;3.28;;
37945;SDS011;23769;52.478;13.448;2022-10-03T16:53:02;9.52;;;3.83;;
37945;SDS011;23769;52.478;13.448;2022-10-03T16:55:35;12.15;;;5.43;;
37945;SDS011;23769;52.478;13.448;2022-10-03T16:58:10;13.90;;;4.25;;
37945;SDS011;23769;52.478;13.448;2022-10-03T17:00:43;11.63;;;3.38;;
37945;SDS011;23769;52.478;13.448;2022-10-03T17:03:15;14.52;;;6.25;;
37945;SDS011;23769;52.478;13.448;2022-10-03T17:05:44;12.02;;;4.68;;
37945;SDS011;23769;52.478;13.448;2022-10-03T17:08:12;9.43;;;4.50;;
37945;SDS011;23769;52.478;13.448;2022-10-03T17:10:40;12.27;;;5.00;;
37945;SDS011;23769;52.478;13.448;2022-10-03T17:13:12;9.65;;;3.55;;
37945;SDS011;23769;52.478;13.448;2022-10-03T17:15:44;12.63;;;3.88;;
37945;SDS011;23769;52.478;13.448;2022-10-03T17:18:15;11.13;;;2.67;;
37945;SDS011;23769;52.478;13.448;2022-10-03T17:20:44;14.00;;;3.50;;
37945;SDS011;23769;52.478;13.448;2022-10-03T17:23:17;9.32;;;2.90;;
37945;SDS011;23769;52.478;13.448;2022-10-03T17:25:48;10.38;;;3.35;;
37945;SDS011;23769;52.478;13.448;2022-10-03T17:28:22;9.48;;;3.03;;
37945;SDS011;23769;52.478;13.448;2022-10-03T17:30:53;9.18;;;2.90;;
37945;SDS011;23769;52.478;13.448;2022-10-03T17:33:24;7.57;;;3.00;;
37945;SDS011;23769;52.478;13.448;2022-10-03T17:35:57;9.32;;;2.33;;
37945;SDS011;23769;52.478;13.448;2022-10-03T17:41:01;10.65;;;3.20;;
37945;SDS011;23769;52.478;13.448;2022-10-03T17:43:34;10.23;;;3.85;;
37945;SDS011;23769;52.478;13.448;2022-10-03T17:46:06;10.27;;;3.35;;
37945;SDS011;23769;52.478;13.448;2022-10-03T17:48:38;10.75;;;3.10;;
37945;SDS011;23769;52.478;13.448;2022-10-03T17:51:24;11.52;;;3.22;;
37945;SDS011;23769;52.478;13.448;2022-10-03T17:53:55;10.93;;;4.25;;
37945;SDS011;23769;52.478;13.448;2022-10-03T17:56:23;12.15;;;4.50;;
37945;SDS011;23769;52.478;13.448;2022-10-03T17:58:56;10.45;;;3.20;;
37945;SDS011;23769;52.478;13.448;2022-10-03T18:01:26;11.65;;;3.10;;
37945;SDS011;23769;52.478;13.448;2022-10-03T18:03:55;9.15;;;3.13;;
37945;SDS011;23769;52.478;13.448;2022-10-03T18:06:30;10.23;;;4.75;;
37945;SDS011;23769;52.478;13.448;2022-10-03T18:08:59;9.40;;;3.50;;
37945;SDS011;23769;52.478;13.448;2022-10-03T18:11:33;8.45;;;2.67;;
37945;SDS011;23769;52.478;13.448;2022-10-03T18:14:07;8.30;;;3.00;;
37945;SDS011;23769;52.478;13.448;2022-10-03T18:16:37;8.52;;;2.53;;
37945;SDS011;23769;52.478;13.448;2022-10-03T18:21:41;5.55;;;2.20;;
37945;SDS011;23769;52.478;13.448;2022-10-03T18:27:14;9.60;;;4.07;;
37945;SDS011;23769;52.478;13.448;2022-10-03T18:29:49;12.05;;;4.55;;
37945;SDS011;23769;52.478;13.448;2022-10-03T18:32:17;11.75;;;6.47;;
37945;SDS011;23769;52.478;13.448;2022-10-03T18:34:46;9.90;;;3.42;;
37945;SDS011;23769;52.478;13.448;2022-10-03T18:37:16;10.50;;;3.10;;
37945;SDS011;23769;52.478;13.448;2022-10-03T18:40:02;7.45;;;2.40;;
37945;SDS011;23769;52.478;13.448;2022-10-03T18:42:31;7.97;;;2.65;;
37945;SDS011;23769;52.478;13.448;2022-10-03T18:45:01;13.13;;;3.53;;
37945;SDS011;23769;52.478;13.448;2022-10-03T18:47:29;9.18;;;3.70;;
37945;SDS011;23769;52.478;13.448;2022-10-03T18:50:01;5.45;;;2.75;;
37945;SDS011;23769;52.478;13.448;2022-10-03T18:52:30;10.90;;;3.40;;